Anthony Williams

Recruteur - Crystal Palace
20 Févr 2028
Dimanche
Processus

Personnalité

Adaptabilité (10) Ambition (13) Controverse (15) Loyauté (14) Pression (18) Professionnalisme (8) Sportivité (4) Tempérament (3)

Profil

Style d'entraînement Démocratique
Diplôme National B
Détermination 10
Gestion des joueurs 10
Motivation 13
Discipline 11
Satisfaction professionnelle
100%
Fatigue
0%
Rôle Recruteur
Salaire 46.7K p/s
Contrat 14.03.2029

Performance

Comportement Bon
Efficacité de l'entraînement
59%
Développement des joueurs
75%
Prévention des blessures
75%
Mise en place tactique
60%

Événements récents

A évalué un joueur maintenant
A participé à une réunion de recrutement maintenant
A participé à une réunion de recrutement maintenant
A évalué un joueur maintenant
A évalué un joueur maintenant
A observé un match 7j
A évalué un joueur 7j
A évalué un joueur 7j

Suivi en cours

96
Joueur Club Statut Capacité Confiance Observé Dernière observation Dernier vote
Luca Williams-Barnett Tranmere Rovers Actif 128 / 128 40% 2 19.02.2028 -
Simone Pafundi Udinese Actif 129 / 134 40% 2 19.02.2028 -
Ryan Kavuma-McQueen Accrington Stanley Actif 116 / 126 40% 1 18.02.2028 -
Babis Kostoulas Brighton Actif 147 / 147 40% 1 18.02.2028 -
Axel Kayombo Sturm Graz Actif 118 / 124 40% 1 16.02.2028 -
Seydou Fini Genoa Actif 125 / 130 40% 1 16.02.2028 -
Oskar Spiten-Nysæter Lazio Actif 122 / 128 40% 2 14.02.2028 -
Julián Vignolo Toulouse FC Actif 108 / 123 40% 1 14.02.2028 -
Sidiki Chérif Everton Actif 131 / 144 40% 1 13.02.2028 -
Yuri Leles Bragantino Actif 115 / 111 40% 1 13.02.2028 -
Rémi Himbert Olympique Lyonnais Actif 117 / 125 40% 2 11.02.2028 -
Baylee Dipepa Norwich City Actif 120 / 119 40% 1 11.02.2028 -
Jake Evans Colchester United Actif 117 / 125 40% 1 08.02.2028 -
Eli Junior Kroupi Bournemouth Actif 143 / 144 40% 1 07.02.2028 -
Nampalys Mendy Watford Perdu 115 / 119 62% 1 31.01.2028 -
Jenson Metcalfe Bradford City Rapport prêt 128 / 118 62% 1 24.01.2028 -
Yu Hirakawa Bristol City Perdu 121 / 131 62% 1 17.01.2028 -
Jay Robinson Southampton Perdu 126 / 136 62% 1 10.01.2028 -
Esquerdinha Shrewsbury Town Actif 109 / 130 40% 1 10.01.2028 -
Josh Nichols Tranmere Rovers Actif 130 / 130 40% 1 10.01.2028 -
Avery Appiah Ajax Actif 116 / 127 40% 1 07.01.2028 -
Caleb Yirenkyi Coventry City Actif 140 / 143 40% 2 01.01.2028 -
Jorrel Hato Chelsea Actif 160 / 159 40% 1 01.01.2028 -
William Osula Wrexham Actif 144 / 130 40% 4 20.12.2027 -
Loum Tchaouna Bolton Wanderers Actif 157 / 149 40% 3 20.12.2027 -
Conor Bradley Bristol City Actif 155 / 164 40% 6 18.12.2027 -
Jack McGlynn Stoke City Actif 130 / 135 40% 2 17.12.2027 -
Jamie Gittens Sunderland Actif 161 / 155 40% 1 15.12.2027 -
Roméo Lavia Blackburn Rovers Actif 156 / 159 40% 1 15.12.2027 -
Ignacio Perruzzi San Lorenzo Actif 118 / 133 40% 1 14.12.2027 -
Joaquín Gho Argentinos Juniors Actif 127 / 133 40% 1 13.12.2027 -
Kobbie Mainoo Leicester City Actif 153 / 161 40% 2 09.12.2027 -
Yehor Yarmoliuk Brentford Actif 156 / 154 40% 1 09.12.2027 -
Tomás Silva Platense Actif 130 / 126 40% 1 08.12.2027 -
Tom Fellows Southampton Actif 138 / 139 40% 5 07.12.2027 -
Noah Sadiki Sunderland Actif 159 / 150 40% 1 07.12.2027 -
Assane Diao Lazio Actif 143 / 153 40% 3 06.12.2027 -
Tomás O'Connor Gimnasia y Esgrima Actif 116 / 126 40% 1 05.12.2027 -
Yankuba Minteh Brighton Actif 167 / 151 40% 3 03.12.2027 -
Alex Scott Bournemouth Actif 145 / 155 40% 2 03.12.2027 -
Jack Hinshelwood Brighton Actif 143 / 157 40% 3 30.11.2027 -
Santiago González Tigre Actif 143 / 135 40% 1 30.11.2027 -
Kevin Fulham Actif 154 / 156 40% 1 29.11.2027 -
Kevin Paredes River Plate Actif 134 / 133 40% 2 26.11.2027 -
Abdoul Ouattara Burton Albion Actif 136 / 140 40% 1 25.11.2027 -
Ante Crnac Rotherham United Actif 131 / 123 40% 2 15.11.2027 -
Tammer Kumar Al-Hilal Actif 125 / 128 40% 1 15.11.2027 -
Alex Luna Instituto Actif 127 / 129 40% 1 06.11.2027 -
Liam Delap Nottingham Forest Actif 148 / 147 40% 1 03.11.2027 -
Eliás Montiel Werder Bremen Actif 134 / 134 40% 1 23.08.2027 -
Agustín Obregón River Plate Actif 102 / 124 40% 1 23.08.2027 -
Oli McBurnie Hull City Actif 127 / 138 58% 1 28.06.2027 -
Matheus Gonçalves Al-Ahli Actif 130 / 123 40% 4 08.06.2027 -
Sondre Tronstad Blackburn Rovers Actif 129 / 123 58% 1 03.06.2027 -
Maximiliano Araújo Crystal Palace Actif 148 / 148 69% 1 01.06.2027 -
Franculino Crystal Palace Négociation 137 / 141 67% 1 01.06.2027 -
Christ Inao Oulaï Fiorentina Actif 129 / 135 40% 1 30.05.2027 -
Othmane Maamma Watford Actif 135 / 126 40% 12 29.05.2027 -
Jan Bürger Gillingham Actif 118 / 114 40% 2 29.05.2027 -
Kutlwano Letlhaku Ajax Cape Town Actif 121 / 112 40% 3 21.05.2027 -
Christos Mouzakitis Hull City Actif 123 / 137 40% 4 17.05.2027 -
Leo Castledine Middlesbrough Actif 125 / 138 40% 3 16.05.2027 -
Shea Lacey Wolverhampton Actif 123 / 129 40% 3 15.05.2027 -
Matías Gómez Granada Actif 104 / 125 40% 5 15.05.2027 -
Jayden Addai Como Actif 133 / 139 40% 7 13.05.2027 -
Lynden Edhart Cambuur Actif 102 / 108 40% 1 12.05.2027 -
Oscar Schwartau Norwich City Actif 112 / 133 40% 3 09.05.2027 -
Ben Gannon Doak Bournemouth Actif 146 / 144 40% 3 09.05.2027 -
Ethan Williams Peterborough United Actif 122 / 118 40% 5 08.05.2027 -
Jesús Rodríguez Como Actif 152 / 150 40% 2 07.05.2027 -
Jofre Torrents Ajax Actif 126 / 123 40% 3 28.04.2027 -
Josh King Chelsea Actif 139 / 147 40% 2 27.04.2027 -
Cyriaque Irié VfL Wolfsburg Actif 132 / 131 40% 2 02.04.2027 -
Mfundo Vilakazi Kaizer Chiefs Actif 102 / 120 40% 2 26.03.2027 -
Nicolas Jackson Aston Villa Actif 143 / 148 40% 2 26.12.2026 -
Reece James Chelsea Actif 183 / 177 40% 2 26.12.2026 -
Adrien Truffert Bournemouth Actif 142 / 146 40% 3 19.12.2026 -
Cody Gakpo Liverpool Actif 170 / 161 40% 2 13.12.2026 -
Mats Wieffer Brighton Actif 160 / 144 40% 1 11.12.2026 -
Nico González Newcastle United Actif 159 / 158 40% 2 08.12.2026 Plus d'infos
Declan Rice Arsenal Actif 176 / 190 40% 1 08.12.2026 -
Pedro Porro Tottenham Actif 145 / 139 40% 1 07.12.2026 -
Carlos Vicente Birmingham Actif 134 / 145 40% 1 05.12.2026 -
Matt O'Riley Brighton Actif 144 / 138 40% 2 04.12.2026 -
Dominik Szoboszlai Liverpool Actif 154 / 169 40% 1 04.12.2026 -
Xavi Simons Tottenham Actif 146 / 164 40% 2 01.12.2026 -
Callum Hudson-Odoi Nottingham Forest Actif 141 / 148 40% 1 28.11.2026 -
Amadou Onana Aston Villa Actif 162 / 161 40% 1 19.11.2026 -
Mason Mount Manchester United Actif 161 / 145 40% 1 19.11.2026 -
Yan Diomandé Real Madrid Actif 154 / 149 40% 2 18.11.2026 -
Bradley Barcola Liverpool Actif 162 / 168 40% 1 18.11.2026 -
Justin Kluivert Bournemouth Actif 152 / 152 40% 1 13.11.2026 -
Alexis Mac Allister Liverpool Actif 156 / 160 40% 1 10.11.2026 -
Dango Ouattara Brentford Actif 138 / 152 40% 1 08.11.2026 -
João Pedro Chelsea Actif 145 / 151 40% 1 08.11.2026 -
Jack Currie Oxford United Actif 131 / 117 58% 1 03.08.2026 -